Time;durP1;ratioP1;P1;durP2;ratioP2;P2;SDS_P1;SDS_P2;PMS_P1;PMS_P2;Temp;Humidity;BMP_temperature;BMP_pressure;BME280_temperature;BME280_humidity;BME280_pressure;Samples;Min_cycle;Max_cycle;Signal;HPM_P1;HPM_P2
2022/01/17 00:03:03;;;;;;;4.10;3.00;;;22.30;63.60;;;;;;7809160;28;20183;-59
2022/01/17 00:06:49;;;;;;;5.00;3.30;;;22.30;63.50;;;;;;7807698;28;20293;-56
2022/01/17 00:10:34;;;;;;;7.80;3.05;;;22.30;63.60;;;;;;7807710;28;20182;-58
2022/01/17 00:14:23;;;;;;;4.28;2.80;;;22.20;63.60;;;;;;7808085;28;20179;-59
2022/01/17 00:21:57;;;;;;;6.60;3.00;;;22.20;63.70;;;;;;7807831;28;20175;-58
2022/01/17 00:25:43;;;;;;;5.85;3.03;;;22.10;63.60;;;;;;7807573;28;20294;-59
2022/01/17 00:29:28;;;;;;;5.38;3.28;;;22.10;63.70;;;;;;7806865;28;20199;-60
2022/01/17 00:33:14;;;;;;;4.25;2.67;;;22.10;63.90;;;;;;7807529;28;20181;-58
2022/01/17 00:36:59;;;;;;;4.82;2.78;;;22.00;63.80;;;;;;7807340;28;20205;-58
2022/01/17 00:40:45;;;;;;;3.90;2.72;;;22.00;63.80;;;;;;7806366;28;20252;-58
2022/01/17 00:44:31;;;;;;;4.65;2.80;;;22.00;64.00;;;;;;7807150;28;20221;-58
2022/01/17 00:48:16;;;;;;;3.15;2.50;;;22.00;63.90;;;;;;7806424;28;20198;-56
2022/01/17 00:52:04;;;;;;;4.00;2.60;;;21.90;64.00;;;;;;7807048;28;20171;-58
2022/01/17 00:55:49;;;;;;;3.47;2.63;;;21.90;64.00;;;;;;7807074;28;20214;-57
2022/01/17 00:59:34;;;;;;;3.38;2.75;;;21.90;64.10;;;;;;7806249;28;20206;-57
2022/01/17 01:03:21;;;;;;;3.22;2.58;;;21.80;64.10;;;;;;7806980;28;20181;-57
2022/01/17 01:07:06;;;;;;;2.75;2.38;;;21.90;64.10;;;;;;7806932;28;20203;-58
2022/01/17 01:10:52;;;;;;;3.10;2.80;;;21.80;64.20;;;;;;7806271;28;20637;-57
2022/01/17 01:14:41;;;;;;;4.38;2.95;;;21.80;64.20;;;;;;7806779;28;20187;-58
2022/01/17 01:30:29;;;;;;;2.40;2.15;;;21.70;64.40;;;;;;7812521;28;20186;-57
2022/01/17 01:34:16;;;;;;;6.32;2.50;;;21.70;64.40;;;;;;7812899;28;20186;-58
2022/01/17 01:38:01;;;;;;;3.28;2.70;;;21.70;64.40;;;;;;7812004;28;20247;-58
2022/01/17 01:41:47;;;;;;;4.30;2.40;;;21.60;64.50;;;;;;7812539;28;20727;-58
2022/01/17 01:45:32;;;;;;;3.22;2.42;;;21.60;64.50;;;;;;7812194;28;20217;-57
2022/01/17 01:49:19;;;;;;;5.32;2.20;;;21.60;64.40;;;;;;7811454;28;20198;-58
2022/01/17 01:53:04;;;;;;;3.90;2.60;;;21.50;64.40;;;;;;7812129;28;20218;-58
2022/01/17 01:56:50;;;;;;;3.45;3.10;;;21.50;64.60;;;;;;7812070;28;20202;-59
2022/01/17 02:00:37;;;;;;;3.10;2.35;;;21.50;64.50;;;;;;7811280;28;20179;-59
2022/01/17 02:04:23;;;;;;;2.67;2.45;;;21.50;64.50;;;;;;7811607;28;20186;-60
2022/01/17 02:08:09;;;;;;;2.80;2.50;;;21.50;64.50;;;;;;7809658;28;20676;-59
2022/01/17 02:11:55;;;;;;;3.08;2.50;;;21.50;64.60;;;;;;7811520;28;20271;-57
2022/01/17 02:15:43;;;;;;;3.05;2.60;;;21.50;64.50;;;;;;7811503;28;20174;-59
2022/01/17 02:19:30;;;;;;;3.85;2.80;;;21.40;64.40;;;;;;7810706;28;20206;-60
2022/01/17 02:23:17;;;;;;;3.38;2.60;;;21.40;64.40;;;;;;7811233;28;20174;-57
2022/01/17 02:27:03;;;;;;;3.30;2.67;;;21.40;64.60;;;;;;7810934;28;20268;-58
2022/01/17 02:30:48;;;;;;;2.92;2.60;;;21.40;64.70;;;;;;7809473;28;20175;-58
2022/01/17 02:34:40;;;;;;;2.83;2.50;;;21.40;65.50;;;;;;7810881;28;20560;-59
2022/01/17 02:38:26;;;;;;;2.63;2.33;;;21.30;64.70;;;;;;7809962;28;20224;-57
2022/01/17 02:42:15;;;;;;;3.63;2.60;;;21.30;64.60;;;;;;7810644;28;20214;-59
2022/01/17 02:49:47;;;;;;;3.53;2.72;;;21.20;64.70;;;;;;7809708;28;20194;-57
2022/01/17 02:53:33;;;;;;;3.28;2.30;;;21.30;64.80;;;;;;7810460;28;20171;-58
2022/01/17 02:57:19;;;;;;;2.85;2.55;;;21.30;64.80;;;;;;7810239;28;20234;-58
2022/01/17 03:01:12;;;;;;;3.17;2.40;;;21.20;64.70;;;;;;7809721;28;20186;-58
2022/01/17 03:04:57;;;;;;;3.42;2.47;;;21.20;64.80;;;;;;7810081;28;20195;-56
2022/01/17 03:08:43;;;;;;;3.63;2.40;;;21.20;64.80;;;;;;7809286;28;20664;-56
2022/01/17 03:12:30;;;;;;;2.50;2.03;;;21.20;64.90;;;;;;7809920;28;20632;-58
2022/01/17 03:16:17;;;;;;;2.20;2.00;;;21.20;64.90;;;;;;7809845;28;20175;-58
2022/01/17 03:20:03;;;;;;;3.05;2.40;;;21.10;64.90;;;;;;7809069;28;20209;-58
2022/01/17 03:23:50;;;;;;;2.92;2.10;;;21.10;64.90;;;;;;7809726;28;20262;-58
2022/01/17 03:27:36;;;;;;;2.67;2.20;;;21.10;64.90;;;;;;7808728;28;20575;-59
2022/01/17 03:31:21;;;;;;;2.40;2.20;;;21.10;65.00;;;;;;7809395;28;20178;-57
2022/01/17 03:35:08;;;;;;;2.55;2.15;;;21.00;65.00;;;;;;7809287;28;20179;-57
2022/01/17 03:38:54;;;;;;;2.90;2.35;;;21.10;65.10;;;;;;7808488;28;20205;-58
2022/01/17 03:42:40;;;;;;;2.53;2.10;;;21.00;65.00;;;;;;7809182;28;20334;-58
2022/01/17 03:46:26;;;;;;;2.75;1.88;;;21.00;65.10;;;;;;7808717;28;20301;-57
2022/01/17 03:50:14;;;;;;;2.35;1.90;;;21.00;65.10;;;;;;7807903;28;20672;-58
2022/01/17 03:54:00;;;;;;;3.42;1.90;;;21.00;65.20;;;;;;7808626;28;20179;-59
2022/01/17 03:57:46;;;;;;;2.50;2.30;;;20.90;65.00;;;;;;7807719;28;20225;-59
2022/01/17 04:01:32;;;;;;;4.25;2.20;;;20.90;65.10;;;;;;7808220;28;20599;-58
2022/01/17 04:05:18;;;;;;;2.47;2.00;;;20.90;65.10;;;;;;7808235;28;20259;-58
2022/01/17 04:09:03;;;;;;;2.30;1.92;;;20.90;65.10;;;;;;7807383;28;20560;-59
2022/01/17 04:12:49;;;;;;;2.00;1.80;;;20.90;65.20;;;;;;7808029;28;20205;-58
2022/01/17 04:16:34;;;;;;;1.80;1.63;;;20.90;65.20;;;;;;7807928;28;20770;-59
2022/01/17 04:20:26;;;;;;;2.88;2.05;;;20.90;65.20;;;;;;7807198;28;20225;-58
2022/01/17 04:24:12;;;;;;;2.45;1.60;;;20.90;65.20;;;;;;7807854;28;20199;-58
2022/01/17 04:27:59;;;;;;;3.00;2.08;;;20.90;65.20;;;;;;7806788;28;20285;-58
2022/01/17 04:31:45;;;;;;;3.42;2.05;;;20.80;65.20;;;;;;7807498;28;20648;-58
2022/01/17 04:35:32;;;;;;;2.20;1.88;;;20.80;65.20;;;;;;7807608;28;20569;-59
2022/01/17 04:39:17;;;;;;;1.75;1.63;;;20.80;65.20;;;;;;7806683;28;20220;-58
2022/01/17 04:43:12;;;;;;;2.30;1.80;;;20.80;65.20;;;;;;7807552;28;20725;-59
2022/01/17 04:46:58;;;;;;;2.70;2.22;;;20.80;65.20;;;;;;7807107;28;20308;-57
2022/01/17 04:50:43;;;;;;;3.45;2.00;;;20.80;65.20;;;;;;7806588;28;20167;-58
2022/01/17 04:54:43;;;;;;;1.95;1.70;;;20.80;65.20;;;;;;7806950;28;20174;-59
2022/01/17 04:58:28;;;;;;;2.05;1.85;;;20.80;65.20;;;;;;7806553;28;20561;-58
2022/01/17 05:02:15;;;;;;;1.75;1.65;;;20.80;65.20;;;;;;7807107;28;20272;-57
2022/01/17 05:06:00;;;;;;;3.05;1.80;;;20.80;65.20;;;;;;7807624;28;20256;-57
2022/01/17 05:09:47;;;;;;;2.10;1.80;;;20.70;65.20;;;;;;7806268;28;20194;-58
2022/01/17 05:13:34;;;;;;;2.53;1.75;;;20.70;65.30;;;;;;7806990;28;20178;-59
2022/01/17 05:17:35;;;;;;;3.50;1.92;;;20.70;65.40;;;;;;7816536;28;20212;-58
2022/01/17 05:21:22;;;;;;;7.03;2.10;;;20.70;65.40;;;;;;7817678;28;20190;-59
2022/01/17 05:25:10;;;;;;;3.28;1.85;;;20.70;65.40;;;;;;7822632;28;20675;-58
2022/01/17 05:28:56;;;;;;;3.35;1.85;;;20.70;66.30;;;;;;7814207;28;20198;-57
2022/01/17 05:32:42;;;;;;;8.90;2.00;;;20.60;65.30;;;;;;7806917;28;20214;-61
2022/01/17 05:36:28;;;;;;;16.05;2.83;;;20.60;65.40;;;;;;7828159;28;20571;-59
2022/01/17 05:40:15;;;;;;;13.93;2.75;;;20.60;65.90;;;;;;7835933;28;20218;-58
2022/01/17 05:44:00;;;;;;;21.02;2.22;;;20.60;66.00;;;;;;7828924;28;20544;-59
2022/01/17 05:47:47;;;;;;;12.35;2.42;;;20.60;66.10;;;;;;7805081;28;20241;-58
2022/01/17 05:51:32;;;;;;;11.25;2.17;;;20.60;66.00;;;;;;7806091;28;20179;-58
2022/01/17 05:55:18;;;;;;;13.23;2.25;;;20.70;66.10;;;;;;7805419;28;20198;-59
2022/01/17 05:59:03;;;;;;;7.68;2.28;;;20.60;66.00;;;;;;7804824;28;20202;-59
2022/01/17 06:02:49;;;;;;;6.97;2.08;;;20.60;65.90;;;;;;7805273;28;20547;-58
2022/01/17 06:06:34;;;;;;;3.67;1.98;;;20.60;66.00;;;;;;7809567;28;20225;-57
2022/01/17 06:10:20;;;;;;;2.53;1.90;;;20.60;66.00;;;;;;7810733;28;20262;-59
2022/01/17 06:14:07;;;;;;;7.97;2.58;;;20.60;66.10;;;;;;7810314;28;20201;-58
2022/01/17 06:17:52;;;;;;;6.40;2.38;;;20.60;66.10;;;;;;7834734;28;20206;-58
2022/01/17 06:21:38;;;;;;;3.33;1.70;;;20.60;66.00;;;;;;7811364;28;20648;-58
2022/01/17 06:25:23;;;;;;;7.65;2.13;;;20.60;66.20;;;;;;7810079;28;20429;-57
2022/01/17 06:29:10;;;;;;;29.85;2.47;;;20.60;66.10;;;;;;7809960;28;20206;-59
2022/01/17 06:32:56;;;;;;;8.10;2.17;;;20.60;67.10;;;;;;7835969;28;20189;-57
2022/01/17 06:36:42;;;;;;;12.55;2.08;;;20.60;66.00;;;;;;7840629;28;20174;-58
2022/01/17 06:40:28;;;;;;;11.70;2.22;;;20.60;65.90;;;;;;7840941;28;20228;-58
2022/01/17 06:44:13;;;;;;;12.80;2.15;;;20.60;66.00;;;;;;7841433;28;20323;-59
2022/01/17 06:48:00;;;;;;;17.45;2.35;;;20.60;66.00;;;;;;7814159;28;20222;-58
2022/01/17 06:51:46;;;;;;;5.32;1.80;;;20.60;66.00;;;;;;7809658;28;20186;-60
2022/01/17 06:55:31;;;;;;;5.68;2.05;;;20.60;65.50;;;;;;7809706;28;20179;-60
2022/01/17 06:59:17;;;;;;;11.02;1.55;;;20.60;65.50;;;;;;7809238;28;20681;-58
2022/01/17 07:03:02;;;;;;;13.27;3.20;;;20.60;65.50;;;;;;7835036;28;20190;-58
2022/01/17 07:06:48;;;;;;;5.55;2.47;;;20.60;64.20;;;;;;7837782;28;20280;-57
2022/01/17 07:10:33;;;;;;;11.27;2.60;;;20.50;63.20;;;;;;7828665;28;20720;-57
2022/01/17 07:14:19;;;;;;;8.63;2.22;;;20.40;64.10;;;;;;7808949;28;20185;-56
2022/01/17 07:18:06;;;;;;;14.52;2.70;;;20.40;64.60;;;;;;7832661;28;20208;-57
2022/01/17 07:21:52;;;;;;;8.07;2.55;;;20.40;64.80;;;;;;7823090;28;20211;-59
2022/01/17 07:25:38;;;;;;;6.65;2.20;;;20.50;64.90;;;;;;7821177;28;20205;-58
2022/01/17 07:29:24;;;;;;;7.43;2.67;;;20.50;65.00;;;;;;7811318;28;20198;-57
2022/01/17 07:33:10;;;;;;;4.05;1.70;;;20.50;65.00;;;;;;7808732;28;20182;-58
2022/01/17 07:36:55;;;;;;;3.05;2.03;;;20.50;65.10;;;;;;7808156;28;20211;-56
2022/01/17 07:40:43;;;;;;;6.95;1.83;;;20.60;65.10;;;;;;7805632;28;20648;-58
2022/01/17 07:44:30;;;;;;;10.55;1.88;;;20.60;65.20;;;;;;7808197;28;20712;-56
2022/01/17 07:52:19;;;;;;;6.47;1.55;;;20.80;66.20;;;;;;7838813;28;20177;-57
2022/01/17 07:56:05;;;;;;;5.57;1.70;;;20.90;66.40;;;;;;7838645;28;20186;-57
2022/01/17 07:59:50;;;;;;;15.95;1.92;;;21.00;66.30;;;;;;7838282;28;20206;-57
2022/01/17 08:03:36;;;;;;;14.20;1.60;;;21.20;66.60;;;;;;7838523;28;20166;-57
2022/01/17 08:07:21;;;;;;;13.63;1.40;;;21.30;66.70;;;;;;7838003;28;20233;-56
2022/01/17 08:11:07;;;;;;;13.38;1.70;;;21.40;66.70;;;;;;7838337;28;20548;-57
2022/01/17 08:14:57;;;;;;;5.57;1.15;;;21.60;66.80;;;;;;7838564;28;20182;-57
2022/01/17 08:18:43;;;;;;;10.40;1.48;;;21.70;66.50;;;;;;7837871;28;20210;-58
2022/01/17 08:22:28;;;;;;;7.03;1.23;;;21.80;66.80;;;;;;7838516;28;20265;-59
2022/01/17 08:26:13;;;;;;;15.70;1.50;;;21.90;66.70;;;;;;7837759;28;20198;-57
2022/01/17 08:30:00;;;;;;;9.20;1.50;;;22.00;66.60;;;;;;7836397;28;20422;-58
2022/01/17 08:33:46;;;;;;;6.25;1.05;;;21.90;67.00;;;;;;7837901;28;20253;-58
2022/01/17 08:37:31;;;;;;;7.03;1.48;;;22.00;66.70;;;;;;7825557;28;20205;-56
2022/01/17 08:41:19;;;;;;;13.57;1.50;;;22.10;66.60;;;;;;7806539;28;20178;-58
2022/01/17 08:45:09;;;;;;;5.97;1.23;;;22.20;66.50;;;;;;7806441;28;20672;-57
2022/01/17 08:48:56;;;;;;;3.17;1.05;;;22.20;66.50;;;;;;7805986;28;20645;-57
2022/01/17 08:52:41;;;;;;;3.97;1.38;;;22.30;66.60;;;;;;7806398;28;20171;-57
2022/01/17 08:56:29;;;;;;;4.38;1.30;;;22.20;66.50;;;;;;7805905;28;20186;-56
2022/01/17 09:00:18;;;;;;;9.15;1.33;;;22.20;66.40;;;;;;7808579;28;20208;-58
2022/01/17 09:04:03;;;;;;;4.57;1.30;;;22.30;66.80;;;;;;7803838;28;20240;-58
2022/01/17 09:07:49;;;;;;;13.32;2.03;;;22.30;66.80;;;;;;7804969;28;20214;-57
2022/01/17 09:11:35;;;;;;;6.03;1.33;;;22.30;66.90;;;;;;7806173;28;20179;-57
2022/01/17 09:15:20;;;;;;;6.75;1.30;;;22.30;67.10;;;;;;7834227;28;20186;-57
2022/01/17 09:19:07;;;;;;;7.13;1.20;;;22.30;67.40;;;;;;7835141;28;20197;-57
2022/01/17 09:22:52;;;;;;;14.15;1.60;;;22.30;67.60;;;;;;7837019;28;20181;-56
2022/01/17 09:26:38;;;;;;;14.55;1.55;;;22.30;67.60;;;;;;7836435;28;20216;-56
2022/01/17 09:30:23;;;;;;;7.82;1.42;;;22.30;67.70;;;;;;7807828;28;20183;-56
2022/01/17 09:34:09;;;;;;;6.70;1.30;;;22.30;67.70;;;;;;7805872;28;20175;-58
2022/01/17 09:37:54;;;;;;;10.63;1.90;;;22.30;67.60;;;;;;7805974;28;20194;-57
2022/01/17 09:41:40;;;;;;;17.15;1.48;;;22.30;67.70;;;;;;7812072;28;20182;-54
2022/01/17 09:45:26;;;;;;;13.15;1.40;;;22.20;67.10;;;;;;7840808;28;20209;-57
2022/01/17 09:49:36;;;;;;;33.88;2.30;;;22.20;67.00;;;;;;7842088;28;20732;-57
2022/01/17 09:53:20;;;;;;;32.63;2.00;;;22.10;67.20;;;;;;7842484;28;20339;-56
2022/01/17 09:57:07;;;;;;;41.38;2.35;;;22.20;67.10;;;;;;7839329;28;20202;-57
2022/01/17 10:00:54;;;;;;;28.63;2.58;;;22.20;67.10;;;;;;7811169;28;20206;-57
2022/01/17 10:04:40;;;;;;;10.82;1.85;;;22.20;67.00;;;;;;7821630;28;20255;-57
2022/01/17 10:08:26;;;;;;;15.40;2.25;;;22.10;63.80;;;;;;7841378;28;20186;-57
2022/01/17 10:12:14;;;;;;;7.95;1.35;;;21.80;62.00;;;;;;7838553;28;20198;-58
2022/01/17 10:16:16;;;;;;;7.07;1.75;;;21.60;64.40;;;;;;7810705;28;20261;-57
2022/01/17 10:20:03;;;;;;;9.20;1.45;;;21.80;65.30;;;;;;7810450;28;20207;-58
2022/01/17 10:24:12;;;;;;;8.70;1.52;;;21.90;65.50;;;;;;7810313;28;20183;-58
2022/01/17 10:36:44;;;;;;;13.88;1.48;;;22.30;65.80;;;;;;7809908;28;20198;-59
2022/01/17 10:40:37;;;;;;;8.20;1.40;;;22.40;66.00;;;;;;7809796;28;20554;-59
2022/01/17 10:44:37;;;;;;;9.50;1.67;;;22.50;66.00;;;;;;7809901;28;20194;-58
2022/01/17 10:48:31;;;;;;;7.53;1.50;;;22.60;66.00;;;;;;7809179;28;20198;-58
2022/01/17 10:52:32;;;;;;;4.75;1.10;;;22.60;66.00;;;;;;7809173;28;20175;-57
2022/01/17 10:56:17;;;;;;;6.97;1.15;;;22.70;66.20;;;;;;7809727;28;20196;-58
2022/01/17 11:00:08;;;;;;;6.85;1.63;;;22.70;66.10;;;;;;7836895;28;20205;-58
2022/01/17 11:03:58;;;;;;;9.93;1.45;;;22.80;66.20;;;;;;7838179;28;20636;-58
2022/01/17 11:07:46;;;;;;;7.32;1.02;;;22.80;66.00;;;;;;7839859;28;20241;-57
2022/01/17 11:11:38;;;;;;;17.65;1.70;;;22.80;65.70;;;;;;7840314;28;20236;-60
2022/01/17 11:15:25;;;;;;;13.05;1.33;;;22.60;65.20;;;;;;7809308;28;20679;-58
2022/01/17 11:20:04;;;;;;;12.95;1.45;;;22.60;65.80;;;;;;7836511;28;20198;-58
2022/01/17 11:23:17;;;;;;;8.00;1.95;;;22.60;65.70;;;;;;7839752;28;20647;-58
2022/01/17 11:27:03;;;;;;;35.05;2.10;;;22.60;65.80;;;;;;7838942;28;20209;-57
2022/01/17 11:30:52;;;;;;;16.48;2.08;;;22.60;65.70;;;;;;7839358;28;20209;-58
2022/01/17 11:34:37;;;;;;;13.80;1.52;;;22.60;65.50;;;;;;7839920;28;20173;-59
2022/01/17 11:38:27;;;;;;;20.77;1.33;;;22.60;65.70;;;;;;7838502;28;20194;-58
2022/01/17 11:42:30;;;;;;;19.40;1.63;;;22.60;65.40;;;;;;7834311;28;20221;-60
2022/01/17 11:46:18;;;;;;;16.70;1.63;;;22.60;65.90;;;;;;7815388;28;20214;-57
2022/01/17 11:50:29;;;;;;;6.00;1.60;;;22.30;60.60;;;;;;7838307;28;20737;-58
2022/01/17 11:54:29;;;;;;;15.57;2.05;;;22.00;62.60;;;;;;7839236;28;20182;-59
2022/01/17 11:58:39;;;;;;;20.08;1.88;;;22.00;64.60;;;;;;7824136;28;20289;-58
2022/01/17 12:02:28;;;;;;;11.18;1.92;;;22.00;63.00;;;;;;7806720;28;20633;-58
2022/01/17 12:06:21;;;;;;;10.43;1.65;;;21.90;63.30;;;;;;7806985;28;20719;-58
2022/01/17 12:10:18;;;;;;;13.38;1.40;;;22.00;64.10;;;;;;7807115;28;20198;-57
2022/01/17 12:14:21;;;;;;;10.23;2.03;;;22.10;64.90;;;;;;7828146;28;20189;-57
2022/01/17 12:18:29;;;;;;;13.18;1.40;;;22.20;65.40;;;;;;7837586;28;20206;-57
2022/01/17 12:22:15;;;;;;;13.80;1.95;;;22.40;65.10;;;;;;7838050;28;20734;-58
2022/01/17 12:26:26;;;;;;;6.10;1.42;;;22.50;65.20;;;;;;7837136;28;20551;-57
2022/01/17 12:30:15;;;;;;;10.65;1.40;;;22.60;65.50;;;;;;7806778;28;20203;-57
2022/01/17 12:34:25;;;;;;;4.18;1.17;;;22.70;65.40;;;;;;7807089;28;20174;-58
2022/01/17 12:38:14;;;;;;;9.30;1.25;;;22.80;65.30;;;;;;7806128;28;20222;-57
2022/01/17 12:42:01;;;;;;;13.57;1.83;;;22.90;65.50;;;;;;7806689;28;20216;-56
2022/01/17 12:45:59;;;;;;;10.45;1.38;;;22.90;65.40;;;;;;7806375;28;20325;-59
2022/01/17 12:49:45;;;;;;;8.90;1.10;;;23.00;65.60;;;;;;7806009;28;20591;-57
2022/01/17 12:53:30;;;;;;;5.25;1.70;;;23.00;65.60;;;;;;7806485;28;20202;-59
2022/01/17 12:57:16;;;;;;;7.15;1.10;;;23.10;65.70;;;;;;7813138;28;20217;-55
2022/01/17 13:01:08;;;;;;;5.72;1.52;;;23.10;65.90;;;;;;7837175;28;20190;-57
2022/01/17 13:04:55;;;;;;;7.72;1.00;;;23.10;65.70;;;;;;7834859;28;20186;-58
2022/01/17 13:08:41;;;;;;;3.92;1.10;;;23.10;66.10;;;;;;7836060;28;20201;-55
2022/01/17 13:12:28;;;;;;;13.38;1.38;;;23.10;66.20;;;;;;7821653;28;20257;-60
2022/01/17 13:16:14;;;;;;;7.82;1.10;;;23.00;66.00;;;;;;7843082;28;20205;-57
2022/01/17 13:20:00;;;;;;;10.23;0.90;;;23.10;66.10;;;;;;7823522;28;20897;-59
2022/01/17 13:24:36;;;;;;;5.13;1.25;;;23.00;66.30;;;;;;7813317;28;20587;-58
2022/01/17 13:28:01;;;;;;;2.83;1.15;;;23.00;66.30;;;;;;7841598;28;20236;-57
2022/01/17 13:31:46;;;;;;;9.50;1.83;;;23.00;66.50;;;;;;7842794;28;20196;-58
2022/01/17 13:35:33;;;;;;;5.05;1.38;;;23.00;66.50;;;;;;7842574;28;20248;-57
2022/01/17 13:39:22;;;;;;;7.30;1.20;;;22.90;66.60;;;;;;7842301;28;20202;-57
2022/01/17 13:43:07;;;;;;;2.95;0.90;;;22.90;66.70;;;;;;7842561;28;20201;-57
2022/01/17 13:47:06;;;;;;;4.72;0.90;;;22.90;66.60;;;;;;7826201;28;20230;-58
2022/01/17 13:51:00;;;;;;;6.82;1.05;;;22.80;65.80;;;;;;7811096;28;20189;-59
2022/01/17 13:54:51;;;;;;;5.78;0.95;;;22.80;66.30;;;;;;7811157;28;20181;-58
2022/01/17 13:58:41;;;;;;;3.75;0.80;;;22.70;66.60;;;;;;7810539;28;20236;-58
2022/01/17 14:02:35;;;;;;;8.05;1.38;;;22.70;66.10;;;;;;7811408;28;20185;-58
2022/01/17 14:06:20;;;;;;;6.78;0.85;;;22.60;65.70;;;;;;7810831;28;20281;-58
2022/01/17 14:10:21;;;;;;;8.48;1.20;;;22.60;65.90;;;;;;7810196;28;20203;-59
2022/01/17 14:14:11;;;;;;;4.05;0.90;;;22.60;66.40;;;;;;7834358;28;20214;-58
2022/01/17 14:18:08;;;;;;;6.28;1.13;;;22.60;66.20;;;;;;7841259;28;20216;-58
2022/01/17 14:22:06;;;;;;;8.32;1.20;;;22.60;66.70;;;;;;7841429;28;20178;-58
2022/01/17 14:25:51;;;;;;;7.50;1.20;;;22.50;66.70;;;;;;7840261;28;20226;-57
2022/01/17 14:29:41;;;;;;;5.35;0.88;;;22.60;66.90;;;;;;7813199;28;20214;-58
2022/01/17 14:33:28;;;;;;;3.65;1.58;;;22.50;66.90;;;;;;7818537;28;20181;-57
2022/01/17 14:37:19;;;;;;;3.67;0.98;;;22.50;66.40;;;;;;7810230;28;20210;-58
2022/01/17 14:41:05;;;;;;;10.25;1.00;;;22.50;67.00;;;;;;7812626;28;20195;-59
2022/01/17 14:44:56;;;;;;;7.68;1.13;;;22.60;66.80;;;;;;7810470;28;20206;-58
2022/01/17 14:48:42;;;;;;;6.45;1.33;;;22.50;66.00;;;;;;7810550;28;20190;-58
2022/01/17 14:52:31;;;;;;;5.80;1.55;;;22.60;66.30;;;;;;7810654;28;20577;-58
2022/01/17 15:00:30;;;;;;;4.90;1.20;;;22.60;66.40;;;;;;7810556;28;20640;-58
2022/01/17 15:04:16;;;;;;;56.42;6.50;;;22.60;66.10;;;;;;7813961;28;20185;-55
2022/01/17 15:08:03;;;;;;;13.18;1.65;;;22.70;65.40;;;;;;7808513;28;20238;-58
2022/01/17 15:11:49;;;;;;;63.92;7.20;;;22.60;65.20;;;;;;7808743;28;20183;-57
2022/01/17 15:15:40;;;;;;;31.33;3.97;;;22.60;65.00;;;;;;7809862;28;20185;-58
2022/01/17 15:19:26;;;;;;;16.20;2.88;;;22.60;65.40;;;;;;7809625;28;20199;-56
2022/01/17 15:23:11;;;;;;;20.48;3.63;;;22.60;65.50;;;;;;7809832;28;20190;-58
2022/01/17 15:26:57;;;;;;;33.55;3.80;;;22.70;65.10;;;;;;7809705;28;20268;-56
2022/01/17 15:30:42;;;;;;;18.48;3.53;;;22.70;64.70;;;;;;7809306;28;20209;-58
2022/01/17 15:34:28;;;;;;;19.48;3.30;;;22.70;64.70;;;;;;7809430;28;20253;-55
2022/01/17 15:38:13;;;;;;;21.00;5.00;;;22.70;64.40;;;;;;7808927;28;20673;-56
2022/01/17 15:42:05;;;;;;;17.20;3.75;;;22.70;63.70;;;;;;7809395;28;20240;-58
2022/01/17 15:45:50;;;;;;;16.70;3.72;;;22.70;63.30;;;;;;7809223;28;20264;-53
2022/01/17 15:49:36;;;;;;;12.70;3.83;;;22.70;63.20;;;;;;7808957;28;20195;-56
2022/01/17 15:53:21;;;;;;;15.77;3.80;;;22.70;63.00;;;;;;7809145;28;20261;-57
2022/01/17 15:57:08;;;;;;;11.60;3.42;;;22.70;61.50;;;;;;7809030;28;20206;-56
2022/01/17 16:00:54;;;;;;;9.82;2.88;;;22.70;61.20;;;;;;7808450;28;20216;-56
2022/01/17 16:04:41;;;;;;;10.57;3.40;;;22.60;61.10;;;;;;7808858;28;20182;-57
2022/01/17 16:08:27;;;;;;;10.30;3.17;;;22.60;61.00;;;;;;7808254;28;20205;-54
2022/01/17 16:12:12;;;;;;;13.10;2.85;;;22.60;61.00;;;;;;7813173;28;20655;-54
2022/01/17 16:15:58;;;;;;;6.78;3.00;;;22.60;61.10;;;;;;7839200;28;20182;-56
2022/01/17 16:19:44;;;;;;;6.63;2.85;;;22.60;61.00;;;;;;7838763;28;20201;-55
2022/01/17 16:23:30;;;;;;;12.02;3.20;;;22.50;61.00;;;;;;7839262;28;20558;-57
2022/01/17 16:27:15;;;;;;;6.35;3.15;;;22.50;61.00;;;;;;7838858;28;20201;-54
2022/01/17 16:31:01;;;;;;;10.70;3.00;;;22.50;61.00;;;;;;7838390;28;20178;-55
2022/01/17 16:34:48;;;;;;;8.93;3.30;;;22.50;61.00;;;;;;7838659;28;20214;-57
2022/01/17 16:38:34;;;;;;;8.95;2.22;;;22.40;61.00;;;;;;7838425;28;20194;-56
2022/01/17 16:42:19;;;;;;;58.25;7.85;;;22.40;61.10;;;;;;7838396;28;20243;-53
2022/01/17 16:46:06;;;;;;;47.15;6.18;;;22.40;61.20;;;;;;7838233;28;20256;-56
2022/01/17 16:49:52;;;;;;;27.25;4.72;;;22.40;60.90;;;;;;7836586;28;20200;-57
2022/01/17 16:53:38;;;;;;;21.77;4.60;;;22.40;61.00;;;;;;7838283;28;20181;-58
2022/01/17 16:57:23;;;;;;;17.92;3.95;;;22.30;60.80;;;;;;7838026;28;20209;-57
2022/01/17 17:01:12;;;;;;;13.85;3.42;;;22.40;61.00;;;;;;7837878;28;20182;-58
2022/01/17 17:04:57;;;;;;;15.15;4.30;;;22.40;60.90;;;;;;7837750;28;20170;-56
2022/01/17 17:08:43;;;;;;;19.98;5.15;;;22.40;60.90;;;;;;7837753;28;20197;-56
2022/01/17 17:12:28;;;;;;;24.77;7.35;;;22.30;61.20;;;;;;7811322;28;20185;-56
2022/01/17 17:16:14;;;;;;;21.55;5.68;;;22.30;59.90;;;;;;7827357;28;20669;-59
2022/01/17 17:19:59;;;;;;;20.40;5.57;;;22.30;60.90;;;;;;7837528;28;20202;-57
2022/01/17 17:23:45;;;;;;;15.18;5.80;;;22.30;61.10;;;;;;7837725;28;20265;-56
2022/01/17 17:27:30;;;;;;;20.90;5.93;;;22.30;61.00;;;;;;7837484;28;20611;-56
2022/01/17 17:31:16;;;;;;;18.13;5.90;;;22.40;60.90;;;;;;7837579;28;20182;-57
2022/01/17 17:35:03;;;;;;;22.35;5.85;;;22.50;60.80;;;;;;7836769;28;20185;-56
2022/01/17 17:38:48;;;;;;;16.98;5.97;;;22.70;61.80;;;;;;7837194;28;20703;-57
2022/01/17 17:42:36;;;;;;;13.27;5.28;;;22.80;62.00;;;;;;7837774;28;20544;-58
2022/01/17 17:46:22;;;;;;;19.48;5.70;;;23.00;61.20;;;;;;7837456;28;20216;-56
2022/01/17 17:50:12;;;;;;;19.92;6.20;;;23.30;62.00;;;;;;7837593;28;20287;-57
2022/01/17 17:53:58;;;;;;;24.98;5.68;;;23.50;62.50;;;;;;7837884;28;20182;-54
2022/01/17 17:57:43;;;;;;;20.70;5.18;;;23.80;62.70;;;;;;7837178;28;20198;-57
2022/01/17 18:01:30;;;;;;;30.33;5.63;;;24.00;62.70;;;;;;7835840;28;20183;-55
2022/01/17 18:05:18;;;;;;;33.67;5.90;;;24.30;62.60;;;;;;7823665;28;20566;-56
2022/01/17 18:09:06;;;;;;;17.50;5.57;;;24.40;61.90;;;;;;7811880;28;20206;-56
2022/01/17 18:12:51;;;;;;;27.45;5.53;;;24.60;62.30;;;;;;7811472;28;20179;-57
2022/01/17 18:16:37;;;;;;;21.77;5.57;;;24.70;62.20;;;;;;7810703;28;20190;-57
2022/01/17 18:20:23;;;;;;;27.00;6.63;;;24.80;62.10;;;;;;7811155;28;20178;-56
2022/01/17 18:24:09;;;;;;;16.75;5.45;;;24.90;62.10;;;;;;7810853;28;20193;-56
2022/01/17 18:27:54;;;;;;;23.75;6.18;;;24.90;61.90;;;;;;7810321;28;20206;-57
2022/01/17 18:31:40;;;;;;;17.48;4.65;;;25.00;62.00;;;;;;7810385;28;20186;-56
2022/01/17 18:35:27;;;;;;;15.15;5.03;;;25.00;62.00;;;;;;7810917;28;20174;-57
2022/01/17 18:39:12;;;;;;;20.40;5.22;;;25.00;62.00;;;;;;7810761;28;20201;-55
2022/01/17 18:42:58;;;;;;;44.88;7.63;;;25.00;61.90;;;;;;7832577;28;20193;-58
2022/01/17 18:46:47;;;;;;;27.33;7.70;;;25.00;60.90;;;;;;7840726;28;20209;-56
2022/01/17 18:50:33;;;;;;;24.20;5.78;;;24.80;60.10;;;;;;7840421;28;20557;-57
2022/01/17 18:54:20;;;;;;;30.40;5.72;;;24.80;62.10;;;;;;7840412;28;20247;-55
2022/01/17 18:58:06;;;;;;;25.35;5.68;;;24.80;61.90;;;;;;7814487;28;20264;-58
2022/01/17 19:01:52;;;;;;;29.00;5.65;;;24.80;62.10;;;;;;7809630;28;20277;-58
2022/01/17 19:05:38;;;;;;;24.27;5.75;;;24.80;62.10;;;;;;7820964;28;20236;-55
2022/01/17 19:09:25;;;;;;;25.90;5.78;;;24.80;62.20;;;;;;7839938;28;20194;-58
2022/01/17 19:13:11;;;;;;;24.48;5.15;;;24.70;63.40;;;;;;7839316;28;20308;-57
2022/01/17 19:16:59;;;;;;;26.75;5.57;;;24.70;63.60;;;;;;7820148;28;20229;-56
2022/01/17 19:24:46;;;;;;;19.80;4.80;;;24.60;65.10;;;;;;7810659;28;20177;-57
2022/01/17 19:28:31;;;;;;;37.72;5.78;;;24.50;65.60;;;;;;7821028;28;20228;-53
2022/01/17 19:32:18;;;;;;;17.10;4.97;;;24.50;66.10;;;;;;7826894;28;20182;-58
2022/01/17 19:36:04;;;;;;;24.60;5.15;;;24.40;66.40;;;;;;7814012;28;20224;-54
2022/01/17 19:39:50;;;;;;;16.80;5.00;;;24.30;66.40;;;;;;7838622;28;20197;-55
2022/01/17 19:43:35;;;;;;;26.85;4.78;;;24.30;66.10;;;;;;7808559;28;20222;-57
2022/01/17 19:47:20;;;;;;;13.80;4.45;;;24.20;67.00;;;;;;7808245;28;20218;-57
2022/01/17 19:51:06;;;;;;;19.15;4.45;;;24.20;67.50;;;;;;7807491;28;20637;-57
2022/01/17 19:54:52;;;;;;;20.02;4.35;;;24.20;68.40;;;;;;7806934;28;20191;-57
2022/01/17 19:58:37;;;;;;;18.05;4.30;;;24.10;68.60;;;;;;7838269;28;20194;-54
2022/01/17 20:02:23;;;;;;;19.25;4.35;;;24.20;68.70;;;;;;7838482;28;20186;-56
2022/01/17 20:06:08;;;;;;;19.92;4.80;;;24.20;68.50;;;;;;7838388;28;20202;-57
2022/01/17 20:09:54;;;;;;;16.92;4.47;;;24.20;68.20;;;;;;7837626;28;20194;-56
2022/01/17 20:13:44;;;;;;;16.85;3.90;;;24.30;68.20;;;;;;7806965;28;20265;-55
2022/01/17 20:17:29;;;;;;;14.38;4.00;;;24.40;68.10;;;;;;7807119;28;20261;-57
2022/01/17 20:21:16;;;;;;;16.77;4.05;;;24.50;68.10;;;;;;7807223;28;20179;-57